createdAt,value
2019-02-06T00:02:19.691Z,15.03
2019-02-06T00:04:50.327Z,14.20
2019-02-06T00:07:22.511Z,14.73
2019-02-06T00:09:56.119Z,12.60
2019-02-06T00:12:26.937Z,10.83
2019-02-06T00:14:59.177Z,12.43
2019-02-06T00:17:33.944Z,11.10
2019-02-06T00:20:06.554Z,13.53
2019-02-06T00:22:40.554Z,12.25
2019-02-06T00:25:12.757Z,10.90
2019-02-06T00:27:49.832Z,12.06
2019-02-06T00:30:23.392Z,11.33
2019-02-06T00:32:55.705Z,11.77
2019-02-06T00:35:26.454Z,10.13
2019-02-06T00:37:58.679Z,11.22
2019-02-06T00:40:29.052Z,10.93
2019-02-06T00:43:08.472Z,11.03
2019-02-06T00:45:42.857Z,10.37
2019-02-06T00:48:27.702Z,10.80
2019-02-06T00:51:01.241Z,10.60
2019-02-06T00:53:36.611Z,9.80
2019-02-06T00:56:08.313Z,10.40
2019-02-06T00:58:38.727Z,9.87
2019-02-06T01:01:09.354Z,10.40
2019-02-06T01:03:40.048Z,9.93
2019-02-06T01:06:13.087Z,10.00
2019-02-06T01:08:48.753Z,9.80
2019-02-06T01:11:19.229Z,10.13
2019-02-06T01:14:14.507Z,10.20
2019-02-06T01:16:29.686Z,10.50
2019-02-06T01:19:35.919Z,11.93
2019-02-06T01:21:37.480Z,11.07
2019-02-06T01:24:07.822Z,10.73
2019-02-06T01:26:38.862Z,10.70
2019-02-06T01:29:09.616Z,11.23
2019-02-06T01:31:44.799Z,11.00
2019-02-06T01:34:18.354Z,9.80
2019-02-06T01:36:53.300Z,11.53
2019-02-06T01:39:27.271Z,10.83
2019-02-06T01:41:57.615Z,10.15
2019-02-06T01:44:28.968Z,11.13
2019-02-06T01:46:59.612Z,10.33
2019-02-06T01:49:30.204Z,9.87
2019-02-06T01:52:02.152Z,10.47
2019-02-06T01:54:35.195Z,9.90
2019-02-06T01:57:10.238Z,10.25
2019-02-06T01:59:40.648Z,9.40
2019-02-06T02:02:11.836Z,9.66
2019-02-06T02:04:42.434Z,9.00
2019-02-06T02:07:13.088Z,10.05
2019-02-06T02:09:43.831Z,8.98
2019-02-06T02:12:19.393Z,9.70
2019-02-06T02:14:53.907Z,8.73
2019-02-06T02:17:29.147Z,9.37
2019-02-06T02:20:01.042Z,9.73
2019-02-06T02:22:33.350Z,9.43
2019-02-06T02:25:06.328Z,9.65
2019-02-06T02:27:36.977Z,9.03
2019-02-06T02:30:09.709Z,9.47
2019-02-06T02:32:40.089Z,9.03
2019-02-06T02:35:13.700Z,8.43
2019-02-06T02:37:48.739Z,9.33
2019-02-06T02:40:24.466Z,9.87
2019-02-06T02:42:56.426Z,9.63
2019-02-06T02:45:31.211Z,10.15
2019-02-06T02:48:01.892Z,9.63
2019-02-06T02:50:32.284Z,9.20
2019-02-06T02:53:02.631Z,9.37
2019-02-06T02:55:34.136Z,8.97
2019-02-06T02:58:10.698Z,9.00
2019-02-06T03:01:04.598Z,8.83
2019-02-06T03:03:55.003Z,9.03
2019-02-06T03:06:28.721Z,8.94
2019-02-06T03:09:03.279Z,9.20
2019-02-06T03:11:37.220Z,9.30
2019-02-06T03:14:09.197Z,8.93
2019-02-06T03:16:45.120Z,9.67
2019-02-06T03:19:20.605Z,9.13
2019-02-06T03:21:50.546Z,8.27
2019-02-06T03:24:21.575Z,9.03
2019-02-06T03:26:52.477Z,9.37
2019-02-06T03:29:24.580Z,8.65
2019-02-06T03:31:56.401Z,8.10
2019-02-06T03:34:29.630Z,8.43
2019-02-06T03:37:02.458Z,9.10
2019-02-06T03:39:38.061Z,7.85
2019-02-06T03:42:09.952Z,8.60
2019-02-06T03:44:40.213Z,7.33
2019-02-06T03:47:10.844Z,8.17
2019-02-06T03:49:42.796Z,7.85
2019-02-06T03:52:13.214Z,8.50
2019-02-06T03:54:43.898Z,8.40
2019-02-06T03:57:15.327Z,8.05
2019-02-06T03:59:47.578Z,8.00
2019-02-06T04:02:19.163Z,7.90
2019-02-06T04:04:55.250Z,7.00
2019-02-06T04:07:29.014Z,8.60
2019-02-06T04:10:03.272Z,6.90
2019-02-06T04:12:39.193Z,8.13
2019-02-06T04:15:09.922Z,7.10
2019-02-06T04:17:40.506Z,7.83
2019-02-06T04:20:11.655Z,7.30
2019-02-06T04:22:41.962Z,7.57
2019-02-06T04:25:14.228Z,8.10
2019-02-06T04:28:01.940Z,8.50
2019-02-06T04:30:26.909Z,7.33
2019-02-06T04:33:01.515Z,7.60
2019-02-06T04:35:33.437Z,6.87
2019-02-06T04:38:05.398Z,8.17
2019-02-06T04:40:36.126Z,7.87
2019-02-06T04:43:06.917Z,7.93
2019-02-06T04:45:37.572Z,7.97
2019-02-06T04:48:09.114Z,8.27
2019-02-06T04:50:46.647Z,8.03
2019-02-06T04:53:21.666Z,7.70
2019-02-06T04:55:53.533Z,7.77
2019-02-06T04:58:24.134Z,7.60
2019-02-06T05:00:54.491Z,7.58
2019-02-06T05:03:25.782Z,7.80
2019-02-06T05:05:56.302Z,7.40
2019-02-06T05:08:29.011Z,8.17
2019-02-06T05:10:59.289Z,7.83
2019-02-06T05:13:31.537Z,7.97
2019-02-06T05:16:02.226Z,7.70
2019-02-06T05:18:32.978Z,7.90
2019-02-06T05:21:04.915Z,7.87
2019-02-06T05:23:35.264Z,8.57
2019-02-06T05:26:16.981Z,8.28
2019-02-06T05:28:55.179Z,7.60
2019-02-06T05:31:25.587Z,7.90
2019-02-06T05:34:03.531Z,8.30
2019-02-06T05:36:34.013Z,7.33
2019-02-06T05:39:07.045Z,8.20
2019-02-06T05:41:38.189Z,8.10
2019-02-06T05:44:08.486Z,8.40
2019-02-06T05:49:26.117Z,7.97
2019-02-06T05:51:56.460Z,8.30
2019-02-06T05:54:27.955Z,7.87
2019-02-06T05:56:58.492Z,8.00
2019-02-06T05:59:32.149Z,9.20
2019-02-06T06:02:05.329Z,8.57
2019-02-06T06:04:39.229Z,9.76
2019-02-06T06:07:14.722Z,8.23
2019-02-06T06:09:45.392Z,8.95
2019-02-06T06:12:17.435Z,8.13
2019-02-06T06:14:48.109Z,8.70
2019-02-06T06:17:18.451Z,8.40
2019-02-06T06:19:50.533Z,8.38
2019-02-06T06:22:40.929Z,9.00
2019-02-06T06:25:12.489Z,9.35
2019-02-06T06:27:51.676Z,8.33
2019-02-06T06:30:26.500Z,7.93
2019-02-06T06:33:02.623Z,9.08
2019-02-06T06:35:38.248Z,8.80
2019-02-06T06:38:09.271Z,8.45
2019-02-06T06:40:39.610Z,9.10
2019-02-06T06:43:10.219Z,8.27
2019-02-06T06:45:42.648Z,8.25
2019-02-06T06:48:13.985Z,8.07
2019-02-06T06:50:46.890Z,9.00
2019-02-06T06:53:20.877Z,9.40
2019-02-06T06:55:53.867Z,8.87
2019-02-06T06:58:25.099Z,9.35
2019-02-06T07:00:56.969Z,7.60
2019-02-06T07:03:29.590Z,9.10
2019-02-06T07:05:59.895Z,8.43
2019-02-06T07:08:35.531Z,8.28
2019-02-06T07:11:08.553Z,8.70
2019-02-06T07:13:40.223Z,8.05
2019-02-06T07:16:10.815Z,8.27
2019-02-06T07:18:42.636Z,8.70
2019-02-06T07:21:12.912Z,8.37
2019-02-06T07:23:46.762Z,8.15
2019-02-06T07:26:24.987Z,8.07
2019-02-06T07:28:56.197Z,8.65
2019-02-06T07:31:31.800Z,8.07
2019-02-06T07:34:03.371Z,7.98
2019-02-06T07:36:33.679Z,8.07
2019-02-06T07:39:07.665Z,8.93
2019-02-06T07:41:40.377Z,8.57
2019-02-06T07:44:13.368Z,8.13
2019-02-06T07:46:45.340Z,8.33
2019-02-06T07:49:18.584Z,8.00
2019-02-06T07:51:52.792Z,8.83
2019-02-06T07:54:30.990Z,8.25
2019-02-06T07:57:07.463Z,8.90
2019-02-06T07:59:33.570Z,8.03
2019-02-06T08:02:03.992Z,8.07
2019-02-06T08:04:34.743Z,7.67
2019-02-06T08:07:05.070Z,7.77
2019-02-06T08:09:40.715Z,7.98
2019-02-06T08:12:11.149Z,8.20
2019-02-06T08:14:49.695Z,7.78
2019-02-06T08:17:35.767Z,7.92
2019-02-06T08:20:13.588Z,7.83
2019-02-06T08:22:45.828Z,7.87
2019-02-06T08:25:28.619Z,7.87
2019-02-06T08:28:00.860Z,7.80
2019-02-06T08:30:36.347Z,7.97
2019-02-06T08:33:06.861Z,8.27
2019-02-06T08:35:38.393Z,8.28
2019-02-06T08:38:09.929Z,8.00
2019-02-06T08:40:46.178Z,8.67
2019-02-06T08:43:13.930Z,8.20
2019-02-06T08:45:47.955Z,8.20
2019-02-06T08:48:30.261Z,7.90
2019-02-06T08:51:00.276Z,9.00
2019-02-06T08:53:30.861Z,8.37
2019-02-06T08:56:01.503Z,7.87
2019-02-06T08:58:32.192Z,8.00
2019-02-06T09:01:02.963Z,7.90
2019-02-06T09:03:39.970Z,7.50
2019-02-06T09:06:17.302Z,7.78
2019-02-06T09:08:59.187Z,7.93
2019-02-06T09:11:32.074Z,8.10
2019-02-06T09:14:12.259Z,7.87
2019-02-06T09:16:43.108Z,7.87
2019-02-06T09:19:13.487Z,7.53
2019-02-06T09:21:43.806Z,7.17
2019-02-06T09:24:14.077Z,7.50
2019-02-06T09:26:46.154Z,7.67
2019-02-06T09:29:16.786Z,7.70
2019-02-06T09:31:51.149Z,7.85
2019-02-06T09:34:23.357Z,7.83
2019-02-06T09:36:59.173Z,8.10
2019-02-06T09:39:29.634Z,7.27
2019-02-06T09:41:59.934Z,7.80
2019-02-06T09:44:31.270Z,8.83
2019-02-06T09:47:07.950Z,8.37
2019-02-06T09:49:38.337Z,7.60
2019-02-06T09:52:08.663Z,7.80
2019-02-06T09:54:39.001Z,7.30
2019-02-06T09:57:09.364Z,7.33
2019-02-06T09:59:49.595Z,7.77
2019-02-06T10:02:26.755Z,7.32
2019-02-06T10:05:05.757Z,7.87
2019-02-06T10:08:15.189Z,7.47
2019-02-06T10:10:19.650Z,8.33
2019-02-06T10:12:57.169Z,8.10
2019-02-06T10:15:38.149Z,8.25
2019-02-06T10:18:13.614Z,7.87
2019-02-06T10:20:48.644Z,7.83
2019-02-06T10:23:20.873Z,8.54
2019-02-06T10:25:53.679Z,8.67
2019-02-06T10:28:24.227Z,8.17
2019-02-06T10:30:57.143Z,8.97
2019-02-06T10:33:29.584Z,9.40
2019-02-06T10:36:03.325Z,9.10
2019-02-06T10:38:51.162Z,9.68
2019-02-06T10:41:24.002Z,9.83
2019-02-06T10:43:54.560Z,9.60
2019-02-06T10:46:26.493Z,9.23
2019-02-06T10:48:56.892Z,9.53
2019-02-06T10:51:27.551Z,8.27
2019-02-06T10:53:58.336Z,8.60
2019-02-06T10:56:34.686Z,9.37
2019-02-06T10:59:11.470Z,9.40
2019-02-06T11:01:46.521Z,8.80
2019-02-06T11:04:17.949Z,9.20
2019-02-06T11:06:51.322Z,10.00
2019-02-06T11:09:21.569Z,8.87
2019-02-06T11:11:51.869Z,10.27
2019-02-06T11:14:22.574Z,9.53
2019-02-06T11:16:52.932Z,9.83
2019-02-06T11:19:26.621Z,9.47
2019-02-06T11:21:59.052Z,9.10
2019-02-06T11:24:33.677Z,9.28
2019-02-06T11:27:07.363Z,8.60
2019-02-06T11:29:38.758Z,8.67
2019-02-06T11:32:09.103Z,10.07
2019-02-06T11:34:39.724Z,8.53
2019-02-06T11:37:10.088Z,9.60
2019-02-06T11:39:40.686Z,8.60
2019-02-06T11:42:15.651Z,9.47
2019-02-06T11:44:58.507Z,8.90
2019-02-06T11:47:37.187Z,9.17
2019-02-06T11:50:12.357Z,9.10
2019-02-06T11:52:42.960Z,8.30
2019-02-06T11:55:16.179Z,8.93
2019-02-06T11:57:46.809Z,9.47
2019-02-06T12:00:43.800Z,8.77
2019-02-06T12:03:14.495Z,8.63
2019-02-06T12:05:46.858Z,9.10
2019-02-06T12:08:23.360Z,9.67
2019-02-06T12:10:51.715Z,9.13
2019-02-06T12:13:24.967Z,8.20
2019-02-06T12:16:07.511Z,9.73
2019-02-06T12:18:33.172Z,8.63
2019-02-06T12:21:05.569Z,8.93
2019-02-06T12:23:36.249Z,8.57
2019-02-06T12:26:07.817Z,9.23
2019-02-06T12:28:42.087Z,9.17
2019-02-06T12:31:11.301Z,8.83
2019-02-06T12:33:41.688Z,9.80
2019-02-06T12:36:15.259Z,9.47
2019-02-06T12:38:53.153Z,9.10
2019-02-06T12:41:16.592Z,9.00
2019-02-06T12:43:57.732Z,8.63
2019-02-06T12:46:23.715Z,9.17
2019-02-06T12:48:57.719Z,8.83
2019-02-06T12:51:29.770Z,8.50
2019-02-06T12:54:00.037Z,9.07
2019-02-06T12:56:31.024Z,8.08
2019-02-06T12:59:02.425Z,9.13
2019-02-06T13:01:35.297Z,8.07
2019-02-06T13:04:08.911Z,7.87
2019-02-06T13:06:43.817Z,7.97
2019-02-06T13:09:19.408Z,8.57
2019-02-06T13:11:56.632Z,7.83
2019-02-06T13:14:25.550Z,7.47
2019-02-06T13:16:58.032Z,8.93
2019-02-06T13:19:28.518Z,8.03
2019-02-06T13:21:59.733Z,8.90
2019-02-06T13:24:30.350Z,8.37
2019-02-06T13:27:04.401Z,8.50
2019-02-06T13:29:41.165Z,8.67
2019-02-06T13:32:16.731Z,8.80
2019-02-06T13:35:11.079Z,7.70
2019-02-06T13:37:47.491Z,8.30
2019-02-06T13:40:20.184Z,8.70
2019-02-06T13:42:58.994Z,8.67
2019-02-06T13:45:35.708Z,8.50
2019-02-06T13:48:06.763Z,8.07
2019-02-06T13:50:37.641Z,8.00
2019-02-06T13:53:14.360Z,8.23
2019-02-06T13:55:47.803Z,8.50
2019-02-06T13:58:22.591Z,8.70
2019-02-06T14:01:00.285Z,8.17
2019-02-06T14:03:29.400Z,8.53
2019-02-06T14:06:00.051Z,7.33
2019-02-06T14:08:32.494Z,7.93
2019-02-06T14:11:03.450Z,8.23
2019-02-06T14:13:36.665Z,8.57
2019-02-06T14:16:07.981Z,8.20
2019-02-06T14:18:48.043Z,8.20
2019-02-06T14:21:22.424Z,7.77
2019-02-06T14:24:07.502Z,7.90
2019-02-06T14:27:02.166Z,7.70
2019-02-06T14:30:02.858Z,7.30
2019-02-06T14:33:08.591Z,7.30
2019-02-06T14:35:52.859Z,7.23
2019-02-06T14:38:56.516Z,7.43
2019-02-06T14:41:35.998Z,7.40
2019-02-06T14:44:38.673Z,6.80
2019-02-06T14:47:32.198Z,7.00
2019-02-06T14:50:33.425Z,6.93
2019-02-06T14:53:46.999Z,7.97
2019-02-06T14:57:16.409Z,6.80
2019-02-06T15:00:30.104Z,7.30
2019-02-06T15:03:51.885Z,7.33
2019-02-06T15:07:04.605Z,8.00
2019-02-06T15:10:07.455Z,6.90
2019-02-06T15:13:30.634Z,7.10
2019-02-06T15:16:22.330Z,6.93
2019-02-06T15:19:48.070Z,7.70
2019-02-06T15:23:05.537Z,7.10
2019-02-06T15:26:08.525Z,7.50
2019-02-06T15:29:01.941Z,7.20
2019-02-06T15:35:15.266Z,7.13
2019-02-06T15:38:16.378Z,6.00
2019-02-06T15:41:31.639Z,6.77
2019-02-06T15:44:33.176Z,7.50
2019-02-06T15:47:33.140Z,7.34
2019-02-06T15:50:32.230Z,6.42
2019-02-06T15:53:54.357Z,6.70
2019-02-06T15:57:11.675Z,6.53
2019-02-06T16:00:13.055Z,6.70
2019-02-06T16:03:16.930Z,6.42
2019-02-06T16:06:23.449Z,6.23
2019-02-06T16:09:30.106Z,6.83
2019-02-06T16:12:44.925Z,5.60
2019-02-06T16:15:43.971Z,6.20
2019-02-06T16:19:11.028Z,6.47
2019-02-06T16:22:19.340Z,6.03
2019-02-06T16:25:20.558Z,6.35
2019-02-06T16:28:25.732Z,5.90
2019-02-06T16:31:31.674Z,5.97
2019-02-06T16:34:24.823Z,6.22
2019-02-06T16:37:09.429Z,5.80
2019-02-06T16:40:02.482Z,6.17
2019-02-06T16:43:08.484Z,6.13
2019-02-06T16:46:27.242Z,6.10
2019-02-06T16:49:18.568Z,5.93
2019-02-06T16:52:19.690Z,6.20
2019-02-06T16:55:25.060Z,6.20
2019-02-06T16:58:35.076Z,6.13
2019-02-06T17:01:47.034Z,5.42
2019-02-06T17:05:06.303Z,5.78
2019-02-06T17:08:17.744Z,6.53
2019-02-06T17:11:07.538Z,5.97
2019-02-06T17:14:21.496Z,5.90
2019-02-06T17:16:59.330Z,5.50
2019-02-06T17:19:42.885Z,6.40
2019-02-06T17:22:44.072Z,6.43
2019-02-06T17:26:00.720Z,6.60
2019-02-06T17:29:10.664Z,7.22
2019-02-06T17:32:35.974Z,7.00
2019-02-06T17:35:39.183Z,8.07
2019-02-06T17:38:37.061Z,7.10
2019-02-06T17:41:41.871Z,7.13
2019-02-06T17:44:48.632Z,8.90
2019-02-06T17:48:09.018Z,7.17
2019-02-06T17:51:19.653Z,7.70
2019-02-06T17:54:23.813Z,7.90
2019-02-06T17:56:55.384Z,8.22
2019-02-06T17:59:25.914Z,8.50
2019-02-06T18:01:56.844Z,7.70
2019-02-06T18:04:39.927Z,7.20
2019-02-06T18:07:14.543Z,8.10
2019-02-06T18:09:47.704Z,8.63
2019-02-06T18:12:26.176Z,7.70
2019-02-06T18:14:51.399Z,7.40
2019-02-06T18:17:21.743Z,7.72
2019-02-06T18:19:52.199Z,7.53
2019-02-06T18:22:24.516Z,7.17
2019-02-06T18:24:58.887Z,8.20
2019-02-06T18:27:40.085Z,7.93
2019-02-06T18:30:14.939Z,7.67
2019-02-06T18:32:45.549Z,7.33
2019-02-06T18:35:16.491Z,8.00
2019-02-06T18:37:50.019Z,8.23
2019-02-06T18:40:26.118Z,8.30
2019-02-06T18:43:04.044Z,7.90
2019-02-06T18:45:38.549Z,7.83
2019-02-06T18:48:13.752Z,8.00
2019-02-06T18:50:42.498Z,7.00
2019-02-06T18:53:13.142Z,7.30
2019-02-06T18:55:43.798Z,7.23
2019-02-06T18:58:14.167Z,7.17
2019-02-06T19:00:50.529Z,7.83
2019-02-06T19:03:26.698Z,7.43
2019-02-06T19:06:01.577Z,8.23
2019-02-06T19:08:32.311Z,8.07
2019-02-06T19:11:04.486Z,8.70
2019-02-06T19:13:35.142Z,8.60
2019-02-06T19:16:10.123Z,8.33
2019-02-06T19:18:44.457Z,7.80
2019-02-06T19:21:29.509Z,8.43
2019-02-06T19:24:03.584Z,8.17
2019-02-06T19:26:34.244Z,9.53
2019-02-06T19:29:08.156Z,8.37
2019-02-06T19:31:40.455Z,9.40
2019-02-06T19:34:11.905Z,8.63
2019-02-06T19:36:42.337Z,9.00
2019-02-06T19:39:14.081Z,9.43
2019-02-06T19:41:47.267Z,8.30
2019-02-06T19:44:23.143Z,8.33
2019-02-06T19:46:57.714Z,9.00
2019-02-06T19:49:29.981Z,8.83
2019-02-06T19:52:01.970Z,8.63
2019-02-06T19:54:32.512Z,8.30
2019-02-06T19:57:09.455Z,8.83
2019-02-06T19:59:42.550Z,9.08
2019-02-06T20:02:14.827Z,9.00
2019-02-06T20:04:47.386Z,9.13
2019-02-06T20:07:17.697Z,9.07
2019-02-06T20:09:49.970Z,9.40
2019-02-06T20:12:20.477Z,10.00
2019-02-06T20:14:50.881Z,9.30
2019-02-06T20:17:21.665Z,9.68
2019-02-06T20:19:52.159Z,9.20
2019-02-06T20:25:16.893Z,9.50
2019-02-06T20:27:49.589Z,10.50
2019-02-06T20:30:36.843Z,10.03
2019-02-06T20:33:10.159Z,10.30
2019-02-06T20:35:45.184Z,10.50
2019-02-06T20:38:20.015Z,11.04
2019-02-06T20:40:50.343Z,10.63
2019-02-06T20:43:22.375Z,9.97
2019-02-06T20:45:56.714Z,10.00
2019-02-06T20:48:31.907Z,10.63
2019-02-06T20:51:06.871Z,11.23
2019-02-06T20:53:37.761Z,10.83
2019-02-06T20:56:08.369Z,10.60
2019-02-06T20:58:42.801Z,10.17
2019-02-06T21:01:14.577Z,10.57
2019-02-06T21:03:57.324Z,11.60
2019-02-06T21:06:26.087Z,11.57
2019-02-06T21:08:58.081Z,11.53
2019-02-06T21:11:29.108Z,12.90
2019-02-06T21:13:59.626Z,12.97
2019-02-06T21:16:37.163Z,13.23
2019-02-06T21:19:12.168Z,14.07
2019-02-06T21:21:49.309Z,14.13
2019-02-06T21:24:29.449Z,13.90
2019-02-06T21:26:55.011Z,14.40
2019-02-06T21:29:26.033Z,14.47
2019-02-06T21:31:56.835Z,13.67
2019-02-06T21:34:50.042Z,14.57
2019-02-06T21:37:14.344Z,12.87
2019-02-06T21:39:46.636Z,13.13
2019-02-06T21:42:18.928Z,11.90
2019-02-06T21:44:49.260Z,14.00
2019-02-06T21:47:36.252Z,13.03
2019-02-06T21:50:01.835Z,12.33
2019-02-06T21:52:37.991Z,13.57
2019-02-06T21:55:17.252Z,13.80
2019-02-06T21:57:49.461Z,13.00
2019-02-06T22:00:24.929Z,12.60
2019-02-06T22:02:55.493Z,12.88
2019-02-06T22:05:27.693Z,12.13
2019-02-06T22:08:02.655Z,13.30
2019-02-06T22:10:35.048Z,12.98
2019-02-06T22:13:06.366Z,13.30
2019-02-06T22:15:37.046Z,13.20
2019-02-06T22:18:07.830Z,13.98
2019-02-06T22:20:38.375Z,12.63
2019-02-06T22:23:14.188Z,13.00
2019-02-06T22:25:46.416Z,13.67
2019-02-06T22:28:18.805Z,14.40
2019-02-06T22:30:49.785Z,13.90
2019-02-06T22:33:46.788Z,15.00
2019-02-06T22:36:14.631Z,15.57
2019-02-06T22:38:43.462Z,15.40
2019-02-06T22:41:07.565Z,14.33
2019-02-06T22:43:38.252Z,14.53
2019-02-06T22:46:10.568Z,15.75
2019-02-06T22:48:41.259Z,16.83
2019-02-06T22:51:16.546Z,17.70
2019-02-06T22:53:47.231Z,17.67
2019-02-06T22:56:18.011Z,18.32
2019-02-06T22:58:48.621Z,17.52
2019-02-06T23:01:37.483Z,19.70
2019-02-06T23:04:08.087Z,18.27
2019-02-06T23:06:38.780Z,19.62
2019-02-06T23:09:09.609Z,21.23
2019-02-06T23:11:40.265Z,20.20
2019-02-06T23:14:17.196Z,20.53
2019-02-06T23:16:43.347Z,20.83
2019-02-06T23:19:26.178Z,21.33
2019-02-06T23:22:11.866Z,20.43
2019-02-06T23:24:50.005Z,21.63
2019-02-06T23:27:40.397Z,22.07
2019-02-06T23:30:25.684Z,21.60
2019-02-06T23:33:02.055Z,21.93
2019-02-06T23:35:57.911Z,22.00
2019-02-06T23:39:09.652Z,22.13
2019-02-06T23:40:51.481Z,21.47
2019-02-06T23:43:21.988Z,22.53
2019-02-06T23:45:53.829Z,23.22
2019-02-06T23:48:27.698Z,22.13
2019-02-06T23:51:07.458Z,22.10
2019-02-06T23:53:41.359Z,22.83
2019-02-06T23:56:14.185Z,20.87
2019-02-06T23:58:44.588Z,21.50
